sensor_id;sensor_type;location;lat;lon;timestamp;P1;durP1;ratioP1;P2;durP2;ratioP2
43933;SDS011;59081;42.706;23.306;2023-09-12T00:00:38;5.28;;;3.17;;
43933;SDS011;59081;42.706;23.306;2023-09-12T00:05:38;7.32;;;3.25;;
43933;SDS011;59081;42.706;23.306;2023-09-12T00:10:39;11.35;;;3.88;;
43933;SDS011;59081;42.706;23.306;2023-09-12T00:15:40;7.82;;;3.33;;
43933;SDS011;59081;42.706;23.306;2023-09-12T00:20:41;9.98;;;3.53;;
43933;SDS011;59081;42.706;23.306;2023-09-12T00:25:41;7.72;;;3.45;;
43933;SDS011;59081;42.706;23.306;2023-09-12T00:30:42;9.15;;;3.58;;
43933;SDS011;59081;42.706;23.306;2023-09-12T00:35:43;10.27;;;3.50;;
43933;SDS011;59081;42.706;23.306;2023-09-12T00:40:43;7.78;;;3.47;;
43933;SDS011;59081;42.706;23.306;2023-09-12T00:45:44;6.28;;;3.50;;
43933;SDS011;59081;42.706;23.306;2023-09-12T00:50:44;8.23;;;3.85;;
43933;SDS011;59081;42.706;23.306;2023-09-12T00:55:49;12.45;;;3.42;;
43933;SDS011;59081;42.706;23.306;2023-09-12T01:00:54;7.97;;;3.60;;
43933;SDS011;59081;42.706;23.306;2023-09-12T01:05:54;7.07;;;3.03;;
43933;SDS011;59081;42.706;23.306;2023-09-12T01:10:56;9.35;;;4.20;;
43933;SDS011;59081;42.706;23.306;2023-09-12T01:15:58;11.80;;;3.20;;
43933;SDS011;59081;42.706;23.306;2023-09-12T01:26:29;6.82;;;3.50;;
43933;SDS011;59081;42.706;23.306;2023-09-12T01:31:37;6.45;;;3.58;;
43933;SDS011;59081;42.706;23.306;2023-09-12T01:36:40;7.50;;;3.67;;
43933;SDS011;59081;42.706;23.306;2023-09-12T01:41:40;9.05;;;3.78;;
43933;SDS011;59081;42.706;23.306;2023-09-12T01:46:45;11.38;;;3.88;;
43933;SDS011;59081;42.706;23.306;2023-09-12T01:51:50;7.82;;;3.38;;
43933;SDS011;59081;42.706;23.306;2023-09-12T01:56:51;6.00;;;3.67;;
43933;SDS011;59081;42.706;23.306;2023-09-12T02:01:55;8.13;;;3.45;;
43933;SDS011;59081;42.706;23.306;2023-09-12T02:06:56;7.80;;;3.92;;
43933;SDS011;59081;42.706;23.306;2023-09-12T02:11:58;6.03;;;3.30;;
43933;SDS011;59081;42.706;23.306;2023-09-12T02:16:58;8.07;;;3.42;;
43933;SDS011;59081;42.706;23.306;2023-09-12T02:21:58;6.82;;;3.85;;
43933;SDS011;59081;42.706;23.306;2023-09-12T02:26:59;13.85;;;4.25;;
43933;SDS011;59081;42.706;23.306;2023-09-12T02:31:59;6.40;;;3.65;;
43933;SDS011;59081;42.706;23.306;2023-09-12T02:37:00;9.60;;;4.32;;
43933;SDS011;59081;42.706;23.306;2023-09-12T02:42:00;12.95;;;4.15;;
43933;SDS011;59081;42.706;23.306;2023-09-12T02:47:03;7.90;;;4.47;;
43933;SDS011;59081;42.706;23.306;2023-09-12T02:52:04;11.83;;;3.60;;
43933;SDS011;59081;42.706;23.306;2023-09-12T02:57:04;7.95;;;3.80;;
43933;SDS011;59081;42.706;23.306;2023-09-12T03:02:05;15.15;;;4.10;;
43933;SDS011;59081;42.706;23.306;2023-09-12T03:07:05;10.95;;;4.05;;
43933;SDS011;59081;42.706;23.306;2023-09-12T03:12:06;9.10;;;4.55;;
43933;SDS011;59081;42.706;23.306;2023-09-12T03:17:06;9.98;;;4.18;;
43933;SDS011;59081;42.706;23.306;2023-09-12T03:22:07;7.82;;;3.95;;
43933;SDS011;59081;42.706;23.306;2023-09-12T03:27:07;9.45;;;4.63;;
43933;SDS011;59081;42.706;23.306;2023-09-12T03:32:08;16.05;;;5.00;;
43933;SDS011;59081;42.706;23.306;2023-09-12T03:37:08;12.55;;;4.55;;
43933;SDS011;59081;42.706;23.306;2023-09-12T03:42:09;10.10;;;4.50;;
43933;SDS011;59081;42.706;23.306;2023-09-12T03:47:09;11.95;;;4.10;;
43933;SDS011;59081;42.706;23.306;2023-09-12T03:52:10;9.63;;;4.63;;
43933;SDS011;59081;42.706;23.306;2023-09-12T03:57:10;7.88;;;4.65;;
43933;SDS011;59081;42.706;23.306;2023-09-12T04:02:10;7.20;;;4.50;;
43933;SDS011;59081;42.706;23.306;2023-09-12T04:07:11;9.27;;;4.22;;
43933;SDS011;59081;42.706;23.306;2023-09-12T04:12:11;10.98;;;4.35;;
43933;SDS011;59081;42.706;23.306;2023-09-12T04:17:12;9.48;;;4.20;;
43933;SDS011;59081;42.706;23.306;2023-09-12T04:22:12;6.82;;;4.97;;
43933;SDS011;59081;42.706;23.306;2023-09-12T04:27:13;10.60;;;5.07;;
43933;SDS011;59081;42.706;23.306;2023-09-12T04:32:14;32.47;;;20.48;;
43933;SDS011;59081;42.706;23.306;2023-09-12T04:37:16;20.58;;;11.77;;
43933;SDS011;59081;42.706;23.306;2023-09-12T04:42:17;9.65;;;4.82;;
43933;SDS011;59081;42.706;23.306;2023-09-12T04:47:17;11.05;;;5.88;;
43933;SDS011;59081;42.706;23.306;2023-09-12T04:52:18;15.27;;;8.35;;
43933;SDS011;59081;42.706;23.306;2023-09-12T04:57:18;10.73;;;4.82;;
43933;SDS011;59081;42.706;23.306;2023-09-12T05:02:19;10.35;;;5.47;;
43933;SDS011;59081;42.706;23.306;2023-09-12T05:07:19;11.50;;;5.40;;
43933;SDS011;59081;42.706;23.306;2023-09-12T05:12:19;10.43;;;4.32;;
43933;SDS011;59081;42.706;23.306;2023-09-12T05:17:20;14.20;;;4.63;;
43933;SDS011;59081;42.706;23.306;2023-09-12T05:22:20;13.30;;;4.70;;
43933;SDS011;59081;42.706;23.306;2023-09-12T05:27:21;10.82;;;5.32;;
43933;SDS011;59081;42.706;23.306;2023-09-12T05:32:21;12.95;;;4.32;;
43933;SDS011;59081;42.706;23.306;2023-09-12T05:37:22;8.77;;;3.88;;
43933;SDS011;59081;42.706;23.306;2023-09-12T05:42:22;9.55;;;4.05;;
43933;SDS011;59081;42.706;23.306;2023-09-12T05:47:22;8.98;;;4.40;;
43933;SDS011;59081;42.706;23.306;2023-09-12T05:52:23;11.05;;;4.22;;
43933;SDS011;59081;42.706;23.306;2023-09-12T05:57:23;11.82;;;4.35;;
43933;SDS011;59081;42.706;23.306;2023-09-12T06:02:24;7.45;;;3.72;;
43933;SDS011;59081;42.706;23.306;2023-09-12T06:07:24;7.53;;;3.63;;
43933;SDS011;59081;42.706;23.306;2023-09-12T06:12:25;14.40;;;5.22;;
43933;SDS011;59081;42.706;23.306;2023-09-12T06:17:25;8.82;;;4.05;;
43933;SDS011;59081;42.706;23.306;2023-09-12T06:22:26;12.30;;;5.10;;
43933;SDS011;59081;42.706;23.306;2023-09-12T06:27:26;15.98;;;5.43;;
43933;SDS011;59081;42.706;23.306;2023-09-12T06:32:27;10.68;;;4.78;;
43933;SDS011;59081;42.706;23.306;2023-09-12T06:37:27;10.15;;;5.20;;
43933;SDS011;59081;42.706;23.306;2023-09-12T06:42:28;8.50;;;5.05;;
43933;SDS011;59081;42.706;23.306;2023-09-12T06:47:28;10.38;;;5.30;;
43933;SDS011;59081;42.706;23.306;2023-09-12T06:52:28;11.10;;;5.25;;
43933;SDS011;59081;42.706;23.306;2023-09-12T06:57:29;10.93;;;5.28;;
43933;SDS011;59081;42.706;23.306;2023-09-12T07:02:30;10.38;;;5.30;;
43933;SDS011;59081;42.706;23.306;2023-09-12T07:07:30;8.95;;;5.40;;
43933;SDS011;59081;42.706;23.306;2023-09-12T07:12:31;10.90;;;5.25;;
43933;SDS011;59081;42.706;23.306;2023-09-12T07:17:33;15.32;;;5.53;;
43933;SDS011;59081;42.706;23.306;2023-09-12T07:22:33;10.77;;;4.70;;
43933;SDS011;59081;42.706;23.306;2023-09-12T07:27:33;13.93;;;5.53;;
43933;SDS011;59081;42.706;23.306;2023-09-12T07:32:34;10.57;;;4.93;;
43933;SDS011;59081;42.706;23.306;2023-09-12T07:37:34;12.18;;;5.25;;
43933;SDS011;59081;42.706;23.306;2023-09-12T07:42:35;10.73;;;5.40;;
43933;SDS011;59081;42.706;23.306;2023-09-12T07:47:36;14.70;;;5.07;;
43933;SDS011;59081;42.706;23.306;2023-09-12T07:52:36;9.77;;;5.00;;
43933;SDS011;59081;42.706;23.306;2023-09-12T07:57:36;18.63;;;5.25;;
43933;SDS011;59081;42.706;23.306;2023-09-12T08:02:37;15.77;;;4.78;;
43933;SDS011;59081;42.706;23.306;2023-09-12T08:07:37;9.57;;;4.15;;
43933;SDS011;59081;42.706;23.306;2023-09-12T08:12:38;7.60;;;3.33;;
43933;SDS011;59081;42.706;23.306;2023-09-12T08:17:38;16.35;;;3.88;;
43933;SDS011;59081;42.706;23.306;2023-09-12T08:22:39;13.32;;;3.25;;
43933;SDS011;59081;42.706;23.306;2023-09-12T08:27:40;13.67;;;3.80;;
43933;SDS011;59081;42.706;23.306;2023-09-12T08:32:42;12.38;;;4.30;;
43933;SDS011;59081;42.706;23.306;2023-09-12T08:37:45;9.23;;;3.58;;
43933;SDS011;59081;42.706;23.306;2023-09-12T08:42:46;12.40;;;3.70;;
43933;SDS011;59081;42.706;23.306;2023-09-12T08:47:50;8.63;;;2.60;;
43933;SDS011;59081;42.706;23.306;2023-09-12T08:52:51;5.45;;;2.90;;
43933;SDS011;59081;42.706;23.306;2023-09-12T08:57:52;16.73;;;3.07;;
43933;SDS011;59081;42.706;23.306;2023-09-12T09:02:55;10.27;;;2.53;;
43933;SDS011;59081;42.706;23.306;2023-09-12T09:07:56;5.13;;;2.40;;
43933;SDS011;59081;42.706;23.306;2023-09-12T09:12:58;6.78;;;2.47;;
43933;SDS011;59081;42.706;23.306;2023-09-12T09:17:58;8.00;;;2.40;;
43933;SDS011;59081;42.706;23.306;2023-09-12T09:23:04;6.07;;;2.72;;
43933;SDS011;59081;42.706;23.306;2023-09-12T09:28:16;6.22;;;2.35;;
43933;SDS011;59081;42.706;23.306;2023-09-12T09:38:18;5.37;;;2.60;;
43933;SDS011;59081;42.706;23.306;2023-09-12T09:43:22;5.05;;;2.58;;
43933;SDS011;59081;42.706;23.306;2023-09-12T09:48:25;8.65;;;2.47;;
43933;SDS011;59081;42.706;23.306;2023-09-12T09:53:30;10.77;;;2.60;;
43933;SDS011;59081;42.706;23.306;2023-09-12T09:58:34;8.93;;;2.60;;
43933;SDS011;59081;42.706;23.306;2023-09-12T10:03:36;10.47;;;3.00;;
43933;SDS011;59081;42.706;23.306;2023-09-12T10:08:37;7.97;;;2.90;;
43933;SDS011;59081;42.706;23.306;2023-09-12T10:13:41;9.32;;;2.78;;
43933;SDS011;59081;42.706;23.306;2023-09-12T10:24:24;5.65;;;2.97;;
43933;SDS011;59081;42.706;23.306;2023-09-12T10:29:26;5.60;;;2.67;;
43933;SDS011;59081;42.706;23.306;2023-09-12T10:34:28;8.68;;;2.70;;
43933;SDS011;59081;42.706;23.306;2023-09-12T10:39:32;9.95;;;2.80;;
43933;SDS011;59081;42.706;23.306;2023-09-12T10:44:34;7.10;;;3.00;;
43933;SDS011;59081;42.706;23.306;2023-09-12T10:49:34;3.17;;;2.10;;
43933;SDS011;59081;42.706;23.306;2023-09-12T10:54:36;4.03;;;2.80;;
43933;SDS011;59081;42.706;23.306;2023-09-12T10:59:43;8.98;;;3.03;;
43933;SDS011;59081;42.706;23.306;2023-09-12T11:10:29;5.22;;;2.50;;
43933;SDS011;59081;42.706;23.306;2023-09-12T11:15:32;7.72;;;2.60;;
43933;SDS011;59081;42.706;23.306;2023-09-12T11:20:59;3.58;;;2.05;;
43933;SDS011;59081;42.706;23.306;2023-09-12T11:26:06;3.58;;;2.28;;
43933;SDS011;59081;42.706;23.306;2023-09-12T11:31:08;7.40;;;2.60;;
43933;SDS011;59081;42.706;23.306;2023-09-12T11:36:12;5.68;;;2.65;;
43933;SDS011;59081;42.706;23.306;2023-09-12T11:41:13;13.77;;;2.78;;
43933;SDS011;59081;42.706;23.306;2023-09-12T11:46:14;9.90;;;2.45;;
43933;SDS011;59081;42.706;23.306;2023-09-12T11:51:15;6.13;;;2.30;;
43933;SDS011;59081;42.706;23.306;2023-09-12T11:56:15;6.85;;;2.63;;
43933;SDS011;59081;42.706;23.306;2023-09-12T12:01:16;7.22;;;2.45;;
43933;SDS011;59081;42.706;23.306;2023-09-12T12:06:16;8.07;;;2.67;;
43933;SDS011;59081;42.706;23.306;2023-09-12T12:11:18;5.47;;;2.45;;
43933;SDS011;59081;42.706;23.306;2023-09-12T12:16:18;9.95;;;2.95;;
43933;SDS011;59081;42.706;23.306;2023-09-12T12:21:19;5.15;;;2.28;;
43933;SDS011;59081;42.706;23.306;2023-09-12T12:26:20;6.82;;;2.67;;
43933;SDS011;59081;42.706;23.306;2023-09-12T12:31:20;6.72;;;2.80;;
43933;SDS011;59081;42.706;23.306;2023-09-12T12:36:24;7.53;;;2.95;;
43933;SDS011;59081;42.706;23.306;2023-09-12T12:41:25;4.93;;;2.72;;
43933;SDS011;59081;42.706;23.306;2023-09-12T12:46:28;9.23;;;2.92;;
43933;SDS011;59081;42.706;23.306;2023-09-12T12:51:28;5.32;;;2.30;;
43933;SDS011;59081;42.706;23.306;2023-09-12T12:56:30;8.40;;;2.25;;
43933;SDS011;59081;42.706;23.306;2023-09-12T13:01:30;7.97;;;2.83;;
43933;SDS011;59081;42.706;23.306;2023-09-12T13:06:31;8.07;;;2.38;;
43933;SDS011;59081;42.706;23.306;2023-09-12T13:11:35;8.63;;;2.78;;
43933;SDS011;59081;42.706;23.306;2023-09-12T13:16:36;14.20;;;2.72;;
43933;SDS011;59081;42.706;23.306;2023-09-12T13:21:36;7.95;;;2.92;;
43933;SDS011;59081;42.706;23.306;2023-09-12T13:26:37;10.27;;;2.72;;
43933;SDS011;59081;42.706;23.306;2023-09-12T13:31:38;6.57;;;2.73;;
43933;SDS011;59081;42.706;23.306;2023-09-12T13:36:38;10.65;;;3.00;;
43933;SDS011;59081;42.706;23.306;2023-09-12T13:41:39;5.60;;;3.08;;
43933;SDS011;59081;42.706;23.306;2023-09-12T13:46:40;6.70;;;3.17;;
43933;SDS011;59081;42.706;23.306;2023-09-12T13:51:44;15.07;;;3.08;;
43933;SDS011;59081;42.706;23.306;2023-09-12T13:56:44;6.13;;;2.53;;
43933;SDS011;59081;42.706;23.306;2023-09-12T14:01:44;10.43;;;2.60;;
43933;SDS011;59081;42.706;23.306;2023-09-12T14:06:45;6.20;;;2.60;;
43933;SDS011;59081;42.706;23.306;2023-09-12T14:11:45;7.40;;;2.80;;
43933;SDS011;59081;42.706;23.306;2023-09-12T14:16:47;6.57;;;2.53;;
43933;SDS011;59081;42.706;23.306;2023-09-12T14:21:48;13.52;;;2.65;;
43933;SDS011;59081;42.706;23.306;2023-09-12T14:26:48;11.43;;;2.92;;
43933;SDS011;59081;42.706;23.306;2023-09-12T14:31:49;8.43;;;2.53;;
43933;SDS011;59081;42.706;23.306;2023-09-12T14:36:55;15.27;;;3.00;;
43933;SDS011;59081;42.706;23.306;2023-09-12T14:41:56;6.00;;;3.22;;
43933;SDS011;59081;42.706;23.306;2023-09-12T14:46:57;9.55;;;2.65;;
43933;SDS011;59081;42.706;23.306;2023-09-12T14:51:57;9.23;;;2.50;;
43933;SDS011;59081;42.706;23.306;2023-09-12T14:56:58;8.00;;;2.80;;
43933;SDS011;59081;42.706;23.306;2023-09-12T15:01:58;8.73;;;2.90;;
43933;SDS011;59081;42.706;23.306;2023-09-12T15:06:58;7.17;;;2.77;;
43933;SDS011;59081;42.706;23.306;2023-09-12T15:11:59;7.67;;;2.53;;
43933;SDS011;59081;42.706;23.306;2023-09-12T15:16:59;5.90;;;2.40;;
43933;SDS011;59081;42.706;23.306;2023-09-12T15:22:00;12.98;;;3.03;;
43933;SDS011;59081;42.706;23.306;2023-09-12T15:27:00;11.90;;;2.83;;
43933;SDS011;59081;42.706;23.306;2023-09-12T15:37:09;7.37;;;2.83;;
43933;SDS011;59081;42.706;23.306;2023-09-12T15:42:11;9.30;;;3.45;;
43933;SDS011;59081;42.706;23.306;2023-09-12T15:47:12;6.55;;;2.70;;
43933;SDS011;59081;42.706;23.306;2023-09-12T15:52:12;10.43;;;2.95;;
43933;SDS011;59081;42.706;23.306;2023-09-12T15:57:13;8.70;;;3.15;;
43933;SDS011;59081;42.706;23.306;2023-09-12T16:02:13;6.80;;;2.67;;
43933;SDS011;59081;42.706;23.306;2023-09-12T16:07:14;10.07;;;2.83;;
43933;SDS011;59081;42.706;23.306;2023-09-12T16:12:14;6.70;;;3.10;;
43933;SDS011;59081;42.706;23.306;2023-09-12T16:17:15;5.23;;;3.10;;
43933;SDS011;59081;42.706;23.306;2023-09-12T16:22:15;6.17;;;2.90;;
43933;SDS011;59081;42.706;23.306;2023-09-12T16:27:15;8.30;;;2.90;;
43933;SDS011;59081;42.706;23.306;2023-09-12T16:32:17;5.32;;;3.20;;
43933;SDS011;59081;42.706;23.306;2023-09-12T16:37:17;7.87;;;3.80;;
43933;SDS011;59081;42.706;23.306;2023-09-12T16:42:18;17.17;;;4.47;;
43933;SDS011;59081;42.706;23.306;2023-09-12T16:47:18;18.43;;;5.00;;
43933;SDS011;59081;42.706;23.306;2023-09-12T16:52:18;15.20;;;6.27;;
43933;SDS011;59081;42.706;23.306;2023-09-12T16:57:19;16.73;;;6.43;;
43933;SDS011;59081;42.706;23.306;2023-09-12T17:02:19;10.10;;;5.10;;
43933;SDS011;59081;42.706;23.306;2023-09-12T17:07:20;10.03;;;4.80;;
43933;SDS011;59081;42.706;23.306;2023-09-12T17:12:20;13.07;;;5.17;;
43933;SDS011;59081;42.706;23.306;2023-09-12T17:17:20;13.17;;;5.00;;
43933;SDS011;59081;42.706;23.306;2023-09-12T17:22:21;6.97;;;4.03;;
43933;SDS011;59081;42.706;23.306;2023-09-12T17:27:21;12.43;;;3.40;;
43933;SDS011;59081;42.706;23.306;2023-09-12T17:32:22;8.93;;;3.80;;
43933;SDS011;59081;42.706;23.306;2023-09-12T17:37:23;11.68;;;3.72;;
43933;SDS011;59081;42.706;23.306;2023-09-12T17:42:24;7.13;;;3.27;;
43933;SDS011;59081;42.706;23.306;2023-09-12T17:47:25;12.35;;;4.25;;
43933;SDS011;59081;42.706;23.306;2023-09-12T17:52:26;10.27;;;4.10;;
43933;SDS011;59081;42.706;23.306;2023-09-12T17:57:26;11.60;;;4.43;;
43933;SDS011;59081;42.706;23.306;2023-09-12T18:02:26;13.60;;;5.13;;
43933;SDS011;59081;42.706;23.306;2023-09-12T18:07:27;12.53;;;4.33;;
43933;SDS011;59081;42.706;23.306;2023-09-12T18:12:28;9.37;;;3.87;;
43933;SDS011;59081;42.706;23.306;2023-09-12T18:17:29;7.03;;;3.80;;
43933;SDS011;59081;42.706;23.306;2023-09-12T18:22:29;9.97;;;4.27;;
43933;SDS011;59081;42.706;23.306;2023-09-12T18:27:30;4.77;;;2.57;;
43933;SDS011;59081;42.706;23.306;2023-09-12T18:32:30;6.93;;;3.47;;
43933;SDS011;59081;42.706;23.306;2023-09-12T18:37:31;6.47;;;3.80;;
43933;SDS011;59081;42.706;23.306;2023-09-12T18:42:32;4.13;;;3.20;;
43933;SDS011;59081;42.706;23.306;2023-09-12T18:47:33;6.07;;;4.03;;
43933;SDS011;59081;42.706;23.306;2023-09-12T18:52:33;10.95;;;3.70;;
43933;SDS011;59081;42.706;23.306;2023-09-12T18:57:33;5.72;;;3.30;;
43933;SDS011;59081;42.706;23.306;2023-09-12T19:02:34;9.15;;;3.45;;
43933;SDS011;59081;42.706;23.306;2023-09-12T19:07:35;8.75;;;3.75;;
43933;SDS011;59081;42.706;23.306;2023-09-12T19:12:36;7.28;;;4.32;;
43933;SDS011;59081;42.706;23.306;2023-09-12T19:17:36;7.25;;;3.53;;
43933;SDS011;59081;42.706;23.306;2023-09-12T19:22:36;6.95;;;3.58;;
43933;SDS011;59081;42.706;23.306;2023-09-12T19:27:37;10.52;;;5.53;;
43933;SDS011;59081;42.706;23.306;2023-09-12T19:32:39;6.90;;;3.60;;
43933;SDS011;59081;42.706;23.306;2023-09-12T19:37:40;12.13;;;3.97;;
43933;SDS011;59081;42.706;23.306;2023-09-12T19:42:45;8.75;;;4.35;;
43933;SDS011;59081;42.706;23.306;2023-09-12T19:47:46;9.57;;;3.40;;
43933;SDS011;59081;42.706;23.306;2023-09-12T19:52:46;9.63;;;4.10;;
43933;SDS011;59081;42.706;23.306;2023-09-12T19:57:46;9.23;;;4.07;;
43933;SDS011;59081;42.706;23.306;2023-09-12T20:02:47;7.90;;;3.05;;
43933;SDS011;59081;42.706;23.306;2023-09-12T20:07:49;4.75;;;3.05;;
43933;SDS011;59081;42.706;23.306;2023-09-12T20:12:50;9.30;;;4.03;;
43933;SDS011;59081;42.706;23.306;2023-09-12T20:17:51;9.73;;;5.13;;
43933;SDS011;59081;42.706;23.306;2023-09-12T20:23:03;9.93;;;2.80;;
43933;SDS011;59081;42.706;23.306;2023-09-12T20:28:04;9.27;;;4.87;;
43933;SDS011;59081;42.706;23.306;2023-09-12T20:33:05;6.53;;;4.82;;
43933;SDS011;59081;42.706;23.306;2023-09-12T20:38:05;8.90;;;4.47;;
43933;SDS011;59081;42.706;23.306;2023-09-12T20:43:06;9.77;;;3.65;;
43933;SDS011;59081;42.706;23.306;2023-09-12T20:48:06;6.35;;;2.85;;
43933;SDS011;59081;42.706;23.306;2023-09-12T20:53:07;9.85;;;4.53;;
43933;SDS011;59081;42.706;23.306;2023-09-12T20:58:08;7.30;;;3.80;;
43933;SDS011;59081;42.706;23.306;2023-09-12T21:03:08;13.85;;;8.02;;
43933;SDS011;59081;42.706;23.306;2023-09-12T21:08:08;11.38;;;5.82;;
43933;SDS011;59081;42.706;23.306;2023-09-12T21:13:09;12.15;;;8.55;;
43933;SDS011;59081;42.706;23.306;2023-09-12T21:18:09;10.68;;;6.38;;
43933;SDS011;59081;42.706;23.306;2023-09-12T21:23:10;21.88;;;12.68;;
43933;SDS011;59081;42.706;23.306;2023-09-12T21:28:10;10.70;;;5.80;;
43933;SDS011;59081;42.706;23.306;2023-09-12T21:33:10;16.75;;;6.18;;
43933;SDS011;59081;42.706;23.306;2023-09-12T21:38:11;10.90;;;5.88;;
43933;SDS011;59081;42.706;23.306;2023-09-12T21:43:11;13.40;;;6.55;;
43933;SDS011;59081;42.706;23.306;2023-09-12T21:48:12;13.35;;;5.35;;
43933;SDS011;59081;42.706;23.306;2023-09-12T21:53:12;19.55;;;7.60;;
43933;SDS011;59081;42.706;23.306;2023-09-12T21:58:13;13.60;;;6.72;;
43933;SDS011;59081;42.706;23.306;2023-09-12T22:03:14;13.73;;;7.20;;
43933;SDS011;59081;42.706;23.306;2023-09-12T22:08:14;14.43;;;6.35;;
43933;SDS011;59081;42.706;23.306;2023-09-12T22:13:14;17.63;;;6.50;;
43933;SDS011;59081;42.706;23.306;2023-09-12T22:18:15;13.48;;;6.15;;
43933;SDS011;59081;42.706;23.306;2023-09-12T22:23:15;12.05;;;5.40;;
43933;SDS011;59081;42.706;23.306;2023-09-12T22:28:16;10.87;;;5.27;;
43933;SDS011;59081;42.706;23.306;2023-09-12T22:33:16;11.27;;;5.38;;
43933;SDS011;59081;42.706;23.306;2023-09-12T22:38:16;10.25;;;5.35;;
43933;SDS011;59081;42.706;23.306;2023-09-12T22:43:17;12.65;;;5.20;;
43933;SDS011;59081;42.706;23.306;2023-09-12T22:48:17;10.40;;;5.43;;
43933;SDS011;59081;42.706;23.306;2023-09-12T22:53:18;10.60;;;5.40;;
43933;SDS011;59081;42.706;23.306;2023-09-12T22:58:19;11.43;;;5.07;;
43933;SDS011;59081;42.706;23.306;2023-09-12T23:03:19;10.18;;;4.78;;
43933;SDS011;59081;42.706;23.306;2023-09-12T23:08:19;14.07;;;4.97;;
43933;SDS011;59081;42.706;23.306;2023-09-12T23:13:22;12.05;;;5.45;;
43933;SDS011;59081;42.706;23.306;2023-09-12T23:18:22;12.80;;;5.57;;
43933;SDS011;59081;42.706;23.306;2023-09-12T23:23:24;10.98;;;4.50;;
43933;SDS011;59081;42.706;23.306;2023-09-12T23:28:26;11.10;;;5.83;;
43933;SDS011;59081;42.706;23.306;2023-09-12T23:33:27;8.90;;;4.30;;
43933;SDS011;59081;42.706;23.306;2023-09-12T23:38:27;14.85;;;5.20;;
43933;SDS011;59081;42.706;23.306;2023-09-12T23:43:28;9.80;;;5.18;;
43933;SDS011;59081;42.706;23.306;2023-09-12T23:48:28;10.80;;;5.43;;
43933;SDS011;59081;42.706;23.306;2023-09-12T23:53:28;12.25;;;5.53;;
43933;SDS011;59081;42.706;23.306;2023-09-12T23:58:29;12.25;;;5.20;;
